createdAt,value
2019-01-31T00:01:02.252Z,70.70
2019-01-31T00:04:14.957Z,75.00
2019-01-31T00:07:20.945Z,73.67
2019-01-31T00:10:20.420Z,64.87
2019-01-31T00:14:05.886Z,70.23
2019-01-31T00:17:26.238Z,67.40
2019-01-31T00:20:35.069Z,61.58
2019-01-31T00:23:47.675Z,69.87
2019-01-31T00:26:51.455Z,67.47
2019-01-31T00:30:11.512Z,76.82
2019-01-31T00:33:11.313Z,76.20
2019-01-31T00:36:07.422Z,82.00
2019-01-31T00:39:25.994Z,85.10
2019-01-31T00:42:32.269Z,77.83
2019-01-31T00:45:28.254Z,77.97
2019-01-31T00:48:33.537Z,70.33
2019-01-31T00:51:38.039Z,85.40
2019-01-31T00:54:38.988Z,70.32
2019-01-31T00:57:20.452Z,82.23
2019-01-31T01:00:34.778Z,79.60
2019-01-31T01:03:37.043Z,76.75
2019-01-31T01:06:17.343Z,77.77
2019-01-31T01:09:08.115Z,71.97
2019-01-31T01:11:57.561Z,73.33
2019-01-31T01:15:22.119Z,71.93
2019-01-31T01:18:22.517Z,67.77
2019-01-31T01:21:15.846Z,74.83
2019-01-31T01:24:14.547Z,74.30
2019-01-31T01:27:29.605Z,79.80
2019-01-31T01:30:39.339Z,82.60
2019-01-31T01:33:50.920Z,78.63
2019-01-31T01:36:49.690Z,74.60
2019-01-31T01:40:06.274Z,71.95
2019-01-31T01:43:17.560Z,77.23
2019-01-31T01:46:34.992Z,69.43
2019-01-31T01:49:24.999Z,77.67
2019-01-31T01:52:37.432Z,75.00
2019-01-31T01:55:18.968Z,67.23
2019-01-31T01:58:38.256Z,68.12
2019-01-31T02:01:42.922Z,80.77
2019-01-31T02:05:05.902Z,73.73
2019-01-31T02:08:09.171Z,70.80
2019-01-31T02:11:20.050Z,79.07
2019-01-31T02:14:34.030Z,71.63
2019-01-31T02:17:37.465Z,76.97
2019-01-31T02:20:30.259Z,66.33
2019-01-31T02:23:31.892Z,72.53
2019-01-31T02:26:57.099Z,74.17
2019-01-31T02:30:06.004Z,71.12
2019-01-31T02:32:52.764Z,66.47
2019-01-31T02:36:09.374Z,72.15
2019-01-31T02:39:42.411Z,57.33
2019-01-31T02:42:45.631Z,66.60
2019-01-31T02:46:06.389Z,56.95
2019-01-31T02:49:23.135Z,60.77
2019-01-31T02:52:45.215Z,71.40
2019-01-31T02:55:42.451Z,74.10
2019-01-31T02:58:45.047Z,68.57
2019-01-31T03:01:27.033Z,77.12
2019-01-31T03:04:57.374Z,72.50
2019-01-31T03:08:10.900Z,76.97
2019-01-31T03:11:09.601Z,85.87
2019-01-31T03:14:10.761Z,76.87
2019-01-31T03:17:09.326Z,74.37
2019-01-31T03:20:17.895Z,73.72
2019-01-31T03:23:09.389Z,70.23
2019-01-31T03:26:23.671Z,77.27
2019-01-31T03:29:32.891Z,86.47
2019-01-31T03:32:31.597Z,75.00
2019-01-31T03:35:30.782Z,71.10
2019-01-31T03:38:31.561Z,73.37
2019-01-31T03:41:40.427Z,68.72
2019-01-31T03:44:26.216Z,78.57
2019-01-31T03:47:30.657Z,74.40
2019-01-31T03:50:19.004Z,71.30
2019-01-31T03:53:50.385Z,72.80
2019-01-31T03:56:40.873Z,77.23
2019-01-31T03:59:25.637Z,75.73
2019-01-31T04:02:36.067Z,74.45
2019-01-31T04:05:35.694Z,86.30
2019-01-31T04:08:08.055Z,73.90
2019-01-31T04:10:41.569Z,86.47
2019-01-31T04:13:15.346Z,74.85
2019-01-31T04:15:48.618Z,80.70
2019-01-31T04:18:20.231Z,89.43
2019-01-31T04:20:51.553Z,85.70
2019-01-31T04:23:25.610Z,87.62
2019-01-31T04:25:58.458Z,80.80
2019-01-31T04:28:32.526Z,74.90
2019-01-31T04:31:04.615Z,78.33
2019-01-31T04:33:37.659Z,81.73
2019-01-31T04:36:09.549Z,79.83
2019-01-31T04:38:44.222Z,82.30
2019-01-31T04:41:17.645Z,86.70
2019-01-31T04:43:51.208Z,95.47
2019-01-31T04:46:22.473Z,96.27
2019-01-31T04:48:55.684Z,119.90
2019-01-31T04:51:28.627Z,169.10
2019-01-31T04:54:00.579Z,181.40
2019-01-31T04:56:31.894Z,155.22
2019-01-31T04:59:05.848Z,140.50
2019-01-31T05:01:37.149Z,145.97
2019-01-31T05:04:10.854Z,134.23
2019-01-31T05:06:44.764Z,115.57
2019-01-31T05:09:18.794Z,99.70
2019-01-31T05:11:52.987Z,94.90
2019-01-31T05:14:25.692Z,85.27
2019-01-31T05:16:57.707Z,86.30
2019-01-31T05:19:29.029Z,84.60
2019-01-31T05:22:02.782Z,78.80
2019-01-31T05:24:36.807Z,78.05
2019-01-31T05:27:11.080Z,92.43
2019-01-31T05:29:42.519Z,79.57
2019-01-31T05:32:14.672Z,85.07
2019-01-31T05:34:46.862Z,92.10
2019-01-31T05:37:19.899Z,87.37
2019-01-31T05:39:53.641Z,83.37
2019-01-31T05:42:25.037Z,81.50
2019-01-31T05:44:58.797Z,92.22
2019-01-31T05:47:31.841Z,89.27
2019-01-31T05:50:08.055Z,85.10
2019-01-31T05:52:39.884Z,91.80
2019-01-31T05:55:14.871Z,87.70
2019-01-31T05:57:48.145Z,90.43
2019-01-31T06:00:29.793Z,89.03
2019-01-31T06:03:01.935Z,85.77
2019-01-31T06:05:33.512Z,82.82
2019-01-31T06:08:04.920Z,77.37
2019-01-31T06:10:39.700Z,79.10
2019-01-31T06:13:12.540Z,89.80
2019-01-31T06:15:46.059Z,85.40
2019-01-31T06:18:18.001Z,79.95
2019-01-31T06:20:51.417Z,77.90
2019-01-31T06:23:22.878Z,87.30
2019-01-31T06:25:55.999Z,87.23
2019-01-31T06:28:30.052Z,85.53
2019-01-31T06:31:05.652Z,89.47
2019-01-31T06:33:37.241Z,77.33
2019-01-31T06:36:11.177Z,82.30
2019-01-31T06:38:45.178Z,79.00
2019-01-31T06:41:18.869Z,82.33
2019-01-31T06:43:50.085Z,84.22
2019-01-31T06:46:22.225Z,88.37
2019-01-31T06:48:55.174Z,84.77
2019-01-31T06:51:28.152Z,82.60
2019-01-31T06:54:01.951Z,96.13
2019-01-31T06:56:35.430Z,89.13
2019-01-31T06:59:08.222Z,92.92
2019-01-31T07:01:39.686Z,98.95
2019-01-31T07:04:13.199Z,96.17
2019-01-31T07:06:44.657Z,100.27
2019-01-31T07:09:18.389Z,98.37
2019-01-31T07:11:51.399Z,98.73
2019-01-31T07:14:22.691Z,100.33
2019-01-31T07:16:57.960Z,105.90
2019-01-31T07:19:30.694Z,101.18
2019-01-31T07:22:04.407Z,102.17
2019-01-31T07:24:38.477Z,99.40
2019-01-31T07:27:13.007Z,102.90
2019-01-31T07:29:46.527Z,109.27
2019-01-31T07:32:20.822Z,93.03
2019-01-31T07:34:54.606Z,83.93
2019-01-31T07:37:28.422Z,116.70
2019-01-31T07:40:02.559Z,116.90
2019-01-31T07:42:34.336Z,150.60
2019-01-31T07:45:14.306Z,169.60
2019-01-31T07:47:46.713Z,344.55
2019-01-31T07:50:20.837Z,132.13
2019-01-31T07:52:54.433Z,360.33
2019-01-31T07:55:28.600Z,212.63
2019-01-31T07:58:01.676Z,129.23
2019-01-31T08:00:33.671Z,129.53
2019-01-31T08:03:07.665Z,132.63
2019-01-31T08:05:41.644Z,159.13
2019-01-31T08:08:15.648Z,170.63
2019-01-31T08:10:51.069Z,139.40
2019-01-31T08:13:24.846Z,114.60
2019-01-31T08:15:59.358Z,104.03
2019-01-31T08:18:31.633Z,101.90
2019-01-31T08:21:05.743Z,96.90
2019-01-31T08:23:38.507Z,91.23
2019-01-31T08:26:10.172Z,172.27
2019-01-31T08:28:43.635Z,89.85
2019-01-31T08:31:17.785Z,104.50
2019-01-31T08:33:51.702Z,98.55
2019-01-31T08:36:23.189Z,106.95
2019-01-31T08:38:57.747Z,117.57
2019-01-31T08:41:30.558Z,108.67
2019-01-31T08:44:05.027Z,107.90
2019-01-31T08:46:38.862Z,126.53
2019-01-31T08:49:13.023Z,127.47
2019-01-31T08:51:46.679Z,108.70
2019-01-31T08:54:20.393Z,104.63
2019-01-31T08:56:51.973Z,98.27
2019-01-31T08:59:25.639Z,90.83
2019-01-31T09:01:59.761Z,92.65
2019-01-31T09:04:35.338Z,136.50
2019-01-31T09:07:07.979Z,91.23
2019-01-31T09:09:40.762Z,101.77
2019-01-31T09:12:15.387Z,100.23
2019-01-31T09:14:45.805Z,104.07
2019-01-31T09:17:21.517Z,126.53
2019-01-31T09:19:53.927Z,127.67
2019-01-31T09:23:03.408Z,172.73
2019-01-31T09:26:19.279Z,127.03
2019-01-31T09:29:12.953Z,118.80
2019-01-31T09:32:09.696Z,107.87
2019-01-31T09:35:20.927Z,106.60
2019-01-31T09:38:53.353Z,113.63
2019-01-31T09:41:56.369Z,108.07
2019-01-31T09:45:24.378Z,104.67
2019-01-31T09:48:30.249Z,101.60
2019-01-31T09:51:42.876Z,92.27
2019-01-31T09:54:30.615Z,95.90
2019-01-31T09:57:35.389Z,90.55
2019-01-31T10:00:44.953Z,87.22
2019-01-31T10:03:48.062Z,88.33
2019-01-31T10:07:29.586Z,86.20
2019-01-31T10:10:48.202Z,99.10
2019-01-31T10:13:52.888Z,91.20
2019-01-31T10:16:55.135Z,88.93
2019-01-31T10:19:58.745Z,95.26
2019-01-31T10:22:45.607Z,95.00
2019-01-31T10:26:04.291Z,98.87
2019-01-31T10:29:14.147Z,92.80
2019-01-31T10:32:18.253Z,100.63
2019-01-31T10:35:16.230Z,92.53
2019-01-31T10:38:32.353Z,93.23
2019-01-31T10:41:33.068Z,94.00
2019-01-31T10:44:57.511Z,85.67
2019-01-31T10:47:39.961Z,89.95
2019-01-31T10:50:42.136Z,83.97
2019-01-31T10:54:02.154Z,90.53
2019-01-31T10:57:16.802Z,103.67
2019-01-31T11:00:25.400Z,87.95
2019-01-31T11:03:35.459Z,88.12
2019-01-31T11:06:33.447Z,76.93
2019-01-31T11:10:01.737Z,77.97
2019-01-31T11:13:11.228Z,90.00
2019-01-31T11:16:24.947Z,87.17
2019-01-31T11:19:50.675Z,77.03
2019-01-31T11:23:00.268Z,86.73
2019-01-31T11:26:16.962Z,82.50
2019-01-31T11:29:48.518Z,75.73
2019-01-31T11:33:22.623Z,87.15
2019-01-31T11:36:34.856Z,83.43
2019-01-31T11:39:39.225Z,85.10
2019-01-31T11:42:50.792Z,85.30
2019-01-31T11:45:52.136Z,77.15
2019-01-31T11:48:58.853Z,74.03
2019-01-31T11:52:07.219Z,85.53
2019-01-31T11:55:21.796Z,88.83
2019-01-31T11:58:49.593Z,84.73
2019-01-31T12:01:22.715Z,81.25
2019-01-31T12:03:57.687Z,82.87
2019-01-31T12:06:31.406Z,83.00
2019-01-31T12:09:08.174Z,90.70
2019-01-31T12:11:41.535Z,101.78
2019-01-31T12:14:15.599Z,91.20
2019-01-31T12:16:49.491Z,91.47
2019-01-31T12:19:21.612Z,101.62
2019-01-31T12:21:55.905Z,91.77
2019-01-31T12:24:28.524Z,96.43
2019-01-31T12:27:02.681Z,94.77
2019-01-31T12:29:36.622Z,93.63
2019-01-31T12:32:09.615Z,96.92
2019-01-31T12:34:43.551Z,102.10
2019-01-31T12:37:15.655Z,92.03
2019-01-31T12:39:48.605Z,111.10
2019-01-31T12:42:21.179Z,109.27
2019-01-31T12:44:53.564Z,96.30
2019-01-31T12:47:26.606Z,104.17
2019-01-31T12:49:58.799Z,101.80
2019-01-31T12:52:31.800Z,108.03
2019-01-31T12:55:04.455Z,104.17
2019-01-31T12:57:37.841Z,105.47
2019-01-31T13:00:15.583Z,106.97
2019-01-31T13:02:48.805Z,109.07
2019-01-31T13:05:20.163Z,103.70
2019-01-31T13:07:53.918Z,117.80
2019-01-31T13:10:25.765Z,108.95
2019-01-31T13:12:59.003Z,117.00
2019-01-31T13:15:30.345Z,105.10
2019-01-31T13:18:04.460Z,118.47
2019-01-31T13:20:39.456Z,112.53
2019-01-31T13:23:12.578Z,120.20
2019-01-31T13:25:45.157Z,118.70
2019-01-31T13:28:16.784Z,118.90
2019-01-31T13:30:50.793Z,111.50
2019-01-31T13:33:22.297Z,128.23
2019-01-31T13:35:55.757Z,105.47
2019-01-31T13:38:29.965Z,120.50
2019-01-31T13:41:04.261Z,101.10
2019-01-31T13:43:37.956Z,114.33
2019-01-31T13:46:11.901Z,117.17
2019-01-31T13:48:44.955Z,119.77
2019-01-31T13:51:16.949Z,118.27
2019-01-31T13:53:50.976Z,109.20
2019-01-31T13:56:22.488Z,122.17
2019-01-31T13:58:56.032Z,111.10
2019-01-31T14:01:29.013Z,109.57
2019-01-31T14:04:00.977Z,128.75
2019-01-31T14:06:35.056Z,111.55
2019-01-31T14:09:09.316Z,113.67
2019-01-31T14:11:42.940Z,125.73
2019-01-31T14:14:17.018Z,121.23
2019-01-31T14:16:48.361Z,108.77
2019-01-31T14:19:22.339Z,120.13
2019-01-31T14:21:56.288Z,123.87
2019-01-31T14:24:30.148Z,117.27
2019-01-31T14:27:01.963Z,117.97
2019-01-31T14:29:35.376Z,112.97
2019-01-31T14:32:09.157Z,113.03
2019-01-31T14:34:41.252Z,126.13
2019-01-31T14:37:13.614Z,110.53
2019-01-31T14:39:47.305Z,126.50
2019-01-31T14:42:18.822Z,132.33
2019-01-31T14:44:50.219Z,129.03
2019-01-31T14:47:22.838Z,125.82
2019-01-31T14:49:54.356Z,117.53
2019-01-31T14:52:26.206Z,135.57
2019-01-31T14:54:59.396Z,114.87
2019-01-31T14:57:33.291Z,111.73
2019-01-31T15:00:10.651Z,121.87
2019-01-31T15:02:41.922Z,119.22
2019-01-31T15:05:16.760Z,114.57
2019-01-31T15:07:49.447Z,118.43
2019-01-31T15:10:24.885Z,118.57
2019-01-31T15:12:57.670Z,114.93
2019-01-31T15:15:29.437Z,123.67
2019-01-31T15:18:02.221Z,113.43
2019-01-31T15:20:41.056Z,111.07
2019-01-31T15:23:13.738Z,110.20
2019-01-31T15:25:47.589Z,114.57
2019-01-31T15:28:20.541Z,118.37
2019-01-31T15:30:51.814Z,114.80
2019-01-31T15:33:23.095Z,114.10
2019-01-31T15:35:56.620Z,115.00
2019-01-31T15:38:30.432Z,123.67
2019-01-31T15:41:06.314Z,110.87
2019-01-31T15:43:38.618Z,106.90
2019-01-31T15:46:12.501Z,113.67
2019-01-31T15:48:43.815Z,128.43
2019-01-31T15:51:17.618Z,117.77
2019-01-31T15:53:49.026Z,113.93
2019-01-31T15:56:22.818Z,118.73
2019-01-31T15:58:56.725Z,101.73
2019-01-31T16:01:29.662Z,120.45
2019-01-31T16:04:03.664Z,125.97
2019-01-31T16:06:35.107Z,123.07
2019-01-31T16:09:09.875Z,123.40
2019-01-31T16:11:41.327Z,122.73
2019-01-31T16:14:13.794Z,112.10
2019-01-31T16:16:47.548Z,113.93
2019-01-31T16:19:19.635Z,106.00
2019-01-31T16:21:52.732Z,102.47
2019-01-31T16:24:25.775Z,110.70
2019-01-31T16:26:57.762Z,116.97
2019-01-31T16:29:30.153Z,103.02
2019-01-31T16:32:02.615Z,109.60
2019-01-31T16:34:34.795Z,107.40
2019-01-31T16:37:09.301Z,103.83
2019-01-31T16:39:40.720Z,103.30
2019-01-31T16:42:12.723Z,109.93
2019-01-31T16:44:46.054Z,106.53
2019-01-31T16:47:19.733Z,104.20
2019-01-31T16:49:52.846Z,107.63
2019-01-31T16:52:25.823Z,107.57
2019-01-31T16:54:58.794Z,105.97
2019-01-31T16:57:33.233Z,119.57
2019-01-31T17:00:09.390Z,116.53
2019-01-31T17:02:40.805Z,114.25
2019-01-31T17:05:18.615Z,120.60
2019-01-31T17:07:50.800Z,109.20
2019-01-31T17:10:24.550Z,103.60
2019-01-31T17:12:56.103Z,118.93
2019-01-31T17:15:29.022Z,105.97
2019-01-31T17:18:00.892Z,99.40
2019-01-31T17:20:43.773Z,107.17
2019-01-31T17:23:17.854Z,101.18
2019-01-31T17:25:49.189Z,118.90
2019-01-31T17:28:23.081Z,106.90
2019-01-31T17:30:56.902Z,114.47
2019-01-31T17:33:29.073Z,109.12
2019-01-31T17:36:02.107Z,110.87
2019-01-31T17:38:36.210Z,111.00
2019-01-31T17:41:09.869Z,116.88
2019-01-31T17:43:44.084Z,111.60
2019-01-31T17:46:20.918Z,106.50
2019-01-31T17:48:54.925Z,103.80
2019-01-31T17:51:28.812Z,113.80
2019-01-31T17:54:03.052Z,127.17
2019-01-31T17:56:36.102Z,112.87
2019-01-31T17:59:08.045Z,119.67
2019-01-31T18:01:41.498Z,110.37
2019-01-31T18:04:15.351Z,120.10
2019-01-31T18:06:47.318Z,128.50
2019-01-31T18:09:20.223Z,120.40
2019-01-31T18:11:51.564Z,134.37
2019-01-31T18:14:23.075Z,173.50
2019-01-31T18:16:56.213Z,159.77
2019-01-31T18:19:30.142Z,141.68
2019-01-31T18:22:04.131Z,133.47
2019-01-31T18:24:38.100Z,133.60
2019-01-31T18:27:13.708Z,150.63
2019-01-31T18:29:46.203Z,135.53
2019-01-31T18:32:20.352Z,125.40
2019-01-31T18:34:54.333Z,147.83
2019-01-31T18:37:26.346Z,142.40
2019-01-31T18:39:57.644Z,131.97
2019-01-31T18:42:29.259Z,113.27
2019-01-31T18:45:02.338Z,111.63
2019-01-31T18:47:35.331Z,102.00
2019-01-31T18:50:09.410Z,104.83
2019-01-31T18:52:43.324Z,106.80
2019-01-31T18:55:17.421Z,93.23
2019-01-31T18:57:51.259Z,101.43
2019-01-31T19:00:25.999Z,109.57
2019-01-31T19:02:59.386Z,97.37
2019-01-31T19:05:31.845Z,100.82
2019-01-31T19:08:08.831Z,108.63
2019-01-31T19:10:43.773Z,98.47
2019-01-31T19:13:14.402Z,96.00
2019-01-31T19:15:48.104Z,95.50
2019-01-31T19:18:24.112Z,101.67
2019-01-31T19:20:56.327Z,100.63
2019-01-31T19:23:29.522Z,96.30
2019-01-31T19:26:01.487Z,101.50
2019-01-31T19:28:35.508Z,93.33
2019-01-31T19:31:07.058Z,93.33
2019-01-31T19:33:40.794Z,106.67
2019-01-31T19:36:14.599Z,100.57
2019-01-31T19:38:48.692Z,140.40
2019-01-31T19:41:22.893Z,100.92
2019-01-31T19:43:55.141Z,101.30
2019-01-31T19:46:26.609Z,97.37
2019-01-31T19:48:58.565Z,88.90
2019-01-31T19:51:31.443Z,90.10
2019-01-31T19:54:03.493Z,91.30
2019-01-31T19:56:35.979Z,105.80
2019-01-31T19:59:08.698Z,88.37
2019-01-31T20:01:44.298Z,92.62
2019-01-31T20:04:16.731Z,95.30
2019-01-31T20:06:51.289Z,84.67
2019-01-31T20:09:27.620Z,82.93
2019-01-31T20:11:59.651Z,83.03
2019-01-31T20:14:32.618Z,89.77
2019-01-31T20:17:08.511Z,92.07
2019-01-31T20:19:40.829Z,83.43
2019-01-31T20:22:12.099Z,94.33
2019-01-31T20:24:45.898Z,85.60
2019-01-31T20:27:17.300Z,92.00
2019-01-31T20:29:50.818Z,99.60
2019-01-31T20:32:23.106Z,88.00
2019-01-31T20:34:56.831Z,86.23
2019-01-31T20:37:29.815Z,87.90
2019-01-31T20:40:04.589Z,85.00
2019-01-31T20:42:39.432Z,87.80
2019-01-31T20:45:14.021Z,95.15
2019-01-31T20:47:47.721Z,88.93
2019-01-31T20:50:22.516Z,83.33
2019-01-31T20:52:56.395Z,89.67
2019-01-31T20:55:30.036Z,95.47
2019-01-31T20:58:03.967Z,86.63
2019-01-31T21:00:45.958Z,93.22
2019-01-31T21:03:18.815Z,86.12
2019-01-31T21:05:51.829Z,87.63
2019-01-31T21:08:23.276Z,84.37
2019-01-31T21:10:56.963Z,81.80
2019-01-31T21:13:29.033Z,90.50
2019-01-31T21:16:01.900Z,95.33
2019-01-31T21:18:33.240Z,91.82
2019-01-31T21:21:05.396Z,92.07
2019-01-31T21:23:37.882Z,98.90
2019-01-31T21:26:13.694Z,98.37
2019-01-31T21:28:46.871Z,97.15
2019-01-31T21:31:20.024Z,88.10
2019-01-31T21:33:51.303Z,89.03
2019-01-31T21:36:23.100Z,95.03
2019-01-31T21:38:56.045Z,93.17
2019-01-31T21:41:29.023Z,97.10
2019-01-31T21:44:01.122Z,84.67
2019-01-31T21:46:35.243Z,94.83
2019-01-31T21:49:09.272Z,82.63
2019-01-31T21:51:43.139Z,85.07
2019-01-31T21:54:17.012Z,81.47
2019-01-31T21:56:48.462Z,83.07
2019-01-31T21:59:22.165Z,86.92
2019-01-31T22:01:56.147Z,86.75
2019-01-31T22:04:29.258Z,91.70
2019-01-31T22:07:01.269Z,88.87
2019-01-31T22:09:35.302Z,96.13
2019-01-31T22:12:08.849Z,83.43
2019-01-31T22:14:40.116Z,88.07
2019-01-31T22:17:14.877Z,90.43
2019-01-31T22:19:47.898Z,90.35
2019-01-31T22:22:19.162Z,85.00
2019-01-31T22:24:53.172Z,87.93
2019-01-31T22:27:26.243Z,81.00
2019-01-31T22:29:58.334Z,98.63
2019-01-31T22:32:33.691Z,93.93
2019-01-31T22:35:07.240Z,89.47
2019-01-31T22:37:40.459Z,87.53
2019-01-31T22:40:13.924Z,90.27
2019-01-31T22:42:45.211Z,98.47
2019-01-31T22:45:21.972Z,102.78
2019-01-31T22:47:53.333Z,88.80
2019-01-31T22:50:26.418Z,92.23
2019-01-31T22:52:58.362Z,92.30
2019-01-31T22:55:32.381Z,98.63
2019-01-31T22:58:05.993Z,96.30
2019-01-31T23:01:09.728Z,101.25
2019-01-31T23:03:42.225Z,95.83
2019-01-31T23:06:17.928Z,130.30
2019-01-31T23:08:49.606Z,121.43
2019-01-31T23:11:23.704Z,103.92
2019-01-31T23:13:57.503Z,108.15
2019-01-31T23:16:31.272Z,105.47
2019-01-31T23:19:06.525Z,125.37
2019-01-31T23:21:39.334Z,85.30
2019-01-31T23:24:12.727Z,95.27
2019-01-31T23:26:48.343Z,87.77
2019-01-31T23:29:20.534Z,98.50
2019-01-31T23:31:54.220Z,118.03
2019-01-31T23:34:26.122Z,110.10
2019-01-31T23:36:57.402Z,91.27
2019-01-31T23:39:33.217Z,94.40
2019-01-31T23:42:04.492Z,100.03
2019-01-31T23:44:40.177Z,84.80
2019-01-31T23:47:13.034Z,96.40
2019-01-31T23:49:44.283Z,88.40
2019-01-31T23:52:15.646Z,102.43
2019-01-31T23:54:48.558Z,90.87
2019-01-31T23:57:19.815Z,94.05
2019-01-31T23:59:51.118Z,86.90
